Time,TemperatureF,DewpointF,PressureIn,WindDirection,WindDirectionDegrees,WindSpeedMPH,WindSpeedGustMPH,Humidity,HourlyPrecipIn,Conditions,Clouds,dailyrainin,SoftwareType,DateUTC
2013-09-24 00:02:00,66.8,60.0,29.85,SSE,149,0.0,1.0,79,0.00,,,0.00,weatherlink.com 1.10,2013-09-24 07:02:00,
2013-09-24 00:17:00,66.4,60.0,29.85,SSE,148,0.0,0.0,80,0.00,,,0.00,weatherlink.com 1.10,2013-09-24 07:17:00,
2013-09-24 00:32:00,65.9,60.0,29.85,SSE,150,0.0,0.0,80,0.00,,,0.00,weatherlink.com 1.10,2013-09-24 07:32:00,
2013-09-24 00:47:00,65.1,59.0,29.85,SSE,150,0.0,0.0,81,0.00,,,0.00,weatherlink.com 1.10,2013-09-24 07:47:00,
2013-09-24 01:02:00,64.5,59.0,29.85,SSE,150,0.0,0.0,82,0.00,,,0.00,weatherlink.com 1.10,2013-09-24 08:02:00,
2013-09-24 01:17:00,64.2,59.0,29.86,SSE,150,0.0,0.0,83,0.00,,,0.00,weatherlink.com 1.10,2013-09-24 08:17:00,
2013-09-24 01:32:00,64.0,59.0,29.86,SSE,150,0.0,0.0,84,0.00,,,0.00,weatherlink.com 1.10,2013-09-24 08:32:00,
2013-09-24 01:47:00,63.5,58.0,29.86,SSE,150,0.0,0.0,83,0.00,,,0.00,weatherlink.com 1.10,2013-09-24 08:47:00,
2013-09-24 02:02:00,63.5,59.0,29.86,SSE,150,0.0,0.0,84,0.00,,,0.00,weatherlink.com 1.10,2013-09-24 09:02:00,
2013-09-24 02:17:00,62.9,58.0,29.86,SSE,150,0.0,0.0,84,0.00,,,0.00,weatherlink.com 1.10,2013-09-24 09:17:00,
2013-09-24 02:32:00,62.3,58.0,29.85,SSE,150,0.0,0.0,85,0.00,,,0.00,weatherlink.com 1.10,2013-09-24 09:32:00,
2013-09-24 02:47:00,61.7,57.0,29.85,SSE,150,0.0,0.0,84,0.00,,,0.00,weatherlink.com 1.10,2013-09-24 09:47:00,
2013-09-24 03:02:00,61.0,57.0,29.85,SSE,148,0.0,0.0,85,0.00,,,0.00,weatherlink.com 1.10,2013-09-24 10:02:00,
2013-09-24 03:17:00,61.2,57.0,29.85,SSE,150,0.0,0.0,86,0.00,,,0.00,weatherlink.com 1.10,2013-09-24 10:17:00,
2013-09-24 03:32:00,60.3,57.0,29.84,SSE,149,0.0,0.0,87,0.00,,,0.00,weatherlink.com 1.10,2013-09-24 10:32:00,
2013-09-24 03:47:00,60.3,56.0,29.84,SSE,148,0.0,0.0,86,0.00,,,0.00,weatherlink.com 1.10,2013-09-24 10:47:00,
2013-09-24 04:02:00,60.6,57.0,29.84,SSE,149,0.0,0.0,87,0.00,,,0.00,weatherlink.com 1.10,2013-09-24 11:02:00,
2013-09-24 04:17:00,60.7,57.0,29.84,SSE,148,0.0,0.0,86,0.00,,,0.00,weatherlink.com 1.10,2013-09-24 11:17:00,
2013-09-24 04:32:00,60.4,56.0,29.84,SSE,150,0.0,0.0,86,0.00,,,0.00,weatherlink.com 1.10,2013-09-24 11:32:00,
2013-09-24 04:47:00,60.4,56.0,29.84,SSE,149,0.0,0.0,86,0.00,,,0.00,weatherlink.com 1.10,2013-09-24 11:47:00,
2013-09-24 05:02:00,60.3,57.0,29.84,SSE,148,0.0,0.0,87,0.00,,,0.00,weatherlink.com 1.10,2013-09-24 12:02:00,
2013-09-24 05:17:00,60.2,56.0,29.84,SSE,148,0.0,0.0,86,0.00,,,0.00,weatherlink.com 1.10,2013-09-24 12:17:00,
2013-09-24 05:32:00,60.1,56.0,29.84,SSE,149,0.0,0.0,86,0.00,,,0.00,weatherlink.com 1.10,2013-09-24 12:32:00,
2013-09-24 05:47:00,59.9,56.0,29.84,SSE,149,0.0,0.0,87,0.00,,,0.00,weatherlink.com 1.10,2013-09-24 12:47:00,
2013-09-24 06:02:00,59.9,56.0,29.84,SSE,148,0.0,0.0,86,0.00,,,0.00,weatherlink.com 1.10,2013-09-24 13:02:00,
2013-09-24 06:17:00,59.0,55.0,29.85,SSE,148,0.0,0.0,86,0.00,,,0.00,weatherlink.com 1.10,2013-09-24 13:17:00,
2013-09-24 06:32:00,58.7,55.0,29.85,SSE,150,0.0,0.0,87,0.00,,,0.00,weatherlink.com 1.10,2013-09-24 13:32:00,
2013-09-24 06:47:00,59.2,55.0,29.85,SSE,150,0.0,0.0,87,0.00,,,0.00,weatherlink.com 1.10,2013-09-24 13:47:00,
2013-09-24 07:02:00,59.1,55.0,29.86,SSE,150,0.0,0.0,87,0.00,,,0.00,weatherlink.com 1.10,2013-09-24 14:02:00,
2013-09-24 07:17:00,59.7,56.0,29.86,SSE,150,0.0,0.0,87,0.00,,,0.00,weatherlink.com 1.10,2013-09-24 14:17:00,
2013-09-24 07:32:00,61.7,58.0,29.86,SSE,148,0.0,0.0,87,0.00,,,0.00,weatherlink.com 1.10,2013-09-24 14:32:00,
2013-09-24 08:02:00,66.8,57.0,29.86,SW,219,0.0,0.0,72,0.00,,,0.00,weatherlink.com 1.10,2013-09-24 15:02:00,
2013-09-24 08:17:00,69.7,57.0,29.87,SW,219,0.0,0.0,65,0.00,,,0.00,weatherlink.com 1.10,2013-09-24 15:17:00,
2013-09-24 08:33:00,71.6,56.0,29.87,WSW,237,0.0,1.0,59,0.00,,,0.00,weatherlink.com 1.10,2013-09-24 15:33:00,
2013-09-24 08:48:00,73.5,56.0,29.88,SW,236,0.0,0.0,55,0.00,,,0.00,weatherlink.com 1.10,2013-09-24 15:48:00,
2013-09-24 09:03:00,75.3,54.0,29.88,West,263,0.0,1.0,48,0.00,,,0.00,weatherlink.com 1.10,2013-09-24 16:03:00,
2013-09-24 09:18:00,76.5,54.0,29.88,WSW,249,1.0,3.0,45,0.00,,,0.00,weatherlink.com 1.10,2013-09-24 16:18:00,
2013-09-24 09:33:00,78.5,53.0,29.88,WSW,247,0.0,2.0,41,0.00,,,0.00,weatherlink.com 1.10,2013-09-24 16:33:00,
2013-09-24 09:48:00,81.0,52.0,29.88,SW,233,0.0,2.0,37,0.00,,,0.00,weatherlink.com 1.10,2013-09-24 16:48:00,
2013-09-24 10:03:00,81.8,51.0,29.88,West,266,0.0,2.0,34,0.00,,,0.00,weatherlink.com 1.10,2013-09-24 17:03:00,
2013-09-24 10:18:00,83.1,48.0,29.89,SW,229,1.0,4.0,29,0.00,,,0.00,weatherlink.com 1.10,2013-09-24 17:18:00,
2013-09-24 10:48:00,84.3,46.0,29.88,WNW,300,1.0,4.0,26,0.00,,,0.00,weatherlink.com 1.10,2013-09-24 17:48:00,
2013-09-24 11:03:00,85.3,51.0,29.88,WNW,284,0.0,3.0,30,0.00,,,0.00,weatherlink.com 1.10,2013-09-24 18:03:00,
2013-09-24 11:18:00,85.7,53.0,29.87,SW,215,5.0,7.0,32,0.00,,,0.00,weatherlink.com 1.10,2013-09-24 18:18:00,
2013-09-24 11:33:00,86.1,55.0,29.87,SE,144,3.0,7.0,34,0.00,,,0.00,weatherlink.com 1.10,2013-09-24 18:33:00,
2013-09-24 11:48:00,85.4,55.0,29.87,WSW,237,3.0,7.0,35,0.00,,,0.00,weatherlink.com 1.10,2013-09-24 18:48:00,
2013-09-24 12:03:00,86.1,53.0,29.86,SW,231,3.0,6.0,32,0.00,,,0.00,weatherlink.com 1.10,2013-09-24 19:03:00,
2013-09-24 12:18:00,85.8,53.0,29.86,SW,223,2.0,7.0,32,0.00,,,0.00,weatherlink.com 1.10,2013-09-24 19:18:00,
2013-09-24 12:33:00,86.4,52.0,29.86,SW,233,3.0,5.0,31,0.00,,,0.00,weatherlink.com 1.10,2013-09-24 19:33:00,
2013-09-24 12:48:00,87.1,52.0,29.85,SSE,153,4.0,6.0,30,0.00,,,0.00,weatherlink.com 1.10,2013-09-24 19:48:00,
2013-09-24 13:03:00,86.8,50.0,29.85,SE,132,3.0,8.0,28,0.00,,,0.00,weatherlink.com 1.10,2013-09-24 20:03:00,
2013-09-24 13:18:00,87.3,50.0,29.84,SW,220,3.0,9.0,28,0.00,,,0.00,weatherlink.com 1.10,2013-09-24 20:18:00,
2013-09-24 13:33:00,87.3,49.0,29.84,SSW,192,4.0,8.0,27,0.00,,,0.00,weatherlink.com 1.10,2013-09-24 20:33:00,
2013-09-24 13:48:00,87.6,51.0,29.83,South,191,3.0,9.0,28,0.00,,,0.00,weatherlink.com 1.10,2013-09-24 20:48:00,
2013-09-24 14:03:00,88.3,48.0,29.82,SSE,151,1.0,9.0,25,0.00,,,0.00,weatherlink.com 1.10,2013-09-24 21:03:00,
2013-09-24 14:18:00,88.4,47.0,29.82,WSW,256,6.0,8.0,24,0.00,,,0.00,weatherlink.com 1.10,2013-09-24 21:18:00,
2013-09-24 14:33:00,89.4,47.0,29.81,WSW,253,2.0,6.0,23,0.00,,,0.00,weatherlink.com 1.10,2013-09-24 21:33:00,
2013-09-24 14:48:00,89.6,47.0,29.81,SSE,160,3.0,7.0,23,0.00,,,0.00,weatherlink.com 1.10,2013-09-24 21:48:00,
2013-09-24 15:03:00,89.4,46.0,29.81,SE,128,4.0,6.0,22,0.00,,,0.00,weatherlink.com 1.10,2013-09-24 22:03:00,
2013-09-24 15:19:00,89.4,46.0,29.81,SE,139,2.0,6.0,22,0.00,,,0.00,weatherlink.com 1.10,2013-09-24 22:19:00,
2013-09-24 15:34:00,89.7,44.0,29.80,WSW,248,3.0,10.0,20,0.00,,,0.00,weatherlink.com 1.10,2013-09-24 22:34:00,
2013-09-24 15:49:00,89.4,42.0,29.80,WSW,248,2.0,6.0,19,0.00,,,0.00,weatherlink.com 1.10,2013-09-24 22:49:00,
2013-09-24 16:04:00,89.3,42.0,29.80,SW,217,4.0,7.0,19,0.00,,,0.00,weatherlink.com 1.10,2013-09-24 23:04:00,
2013-09-24 16:34:00,89.5,39.0,29.79,NW,319,1.0,8.0,17,0.00,,,0.00,weatherlink.com 1.10,2013-09-24 23:34:00,
2013-09-24 16:49:00,89.1,39.0,29.79,West,278,1.0,6.0,17,0.00,,,0.00,weatherlink.com 1.10,2013-09-24 23:49:00,
2013-09-24 17:04:00,89.0,39.0,29.79,NW,314,4.0,9.0,17,0.00,,,0.00,weatherlink.com 1.10,2013-09-25 00:04:00,
2013-09-24 17:19:00,87.2,39.0,29.80,WNW,285,6.0,8.0,18,0.00,,,0.00,weatherlink.com 1.10,2013-09-25 00:19:00,
2013-09-24 17:34:00,84.8,35.0,29.80,WNW,289,6.0,13.0,17,0.00,,,0.00,weatherlink.com 1.10,2013-09-25 00:34:00,
2013-09-24 17:49:00,83.7,36.0,29.80,WSW,253,5.0,9.0,18,0.00,,,0.00,weatherlink.com 1.10,2013-09-25 00:49:00,
2013-09-24 18:04:00,82.4,40.0,29.80,WSW,255,3.0,11.0,22,0.00,,,0.00,weatherlink.com 1.10,2013-09-25 01:04:00,
2013-09-24 18:19:00,80.8,42.0,29.80,West,269,1.0,9.0,25,0.00,,,0.00,weatherlink.com 1.10,2013-09-25 01:19:00,
2013-09-24 18:34:00,79.8,45.0,29.80,WNW,298,2.0,5.0,29,0.00,,,0.00,weatherlink.com 1.10,2013-09-25 01:34:00,
2013-09-24 18:49:00,77.8,47.0,29.79,West,276,0.0,1.0,34,0.00,,,0.00,weatherlink.com 1.10,2013-09-25 01:49:00,
2013-09-24 19:04:00,76.5,49.0,29.79,West,262,0.0,2.0,38,0.00,,,0.00,weatherlink.com 1.10,2013-09-25 02:04:00,
2013-09-24 19:19:00,75.5,51.0,29.79,WNW,290,1.0,3.0,42,0.00,,,0.00,weatherlink.com 1.10,2013-09-25 02:19:00,
2013-09-24 19:34:00,74.8,54.0,29.80,WNW,283,0.0,4.0,49,0.00,,,0.00,weatherlink.com 1.10,2013-09-25 02:34:00,
2013-09-24 19:49:00,74.0,56.0,29.80,WSW,240,0.0,3.0,54,0.00,,,0.00,weatherlink.com 1.10,2013-09-25 02:49:00,
2013-09-24 20:04:00,73.1,57.0,29.81,WNW,299,0.0,2.0,58,0.00,,,0.00,weatherlink.com 1.10,2013-09-25 03:04:00,
2013-09-24 20:19:00,72.1,58.0,29.82,WNW,299,0.0,0.0,61,0.00,,,0.00,weatherlink.com 1.10,2013-09-25 03:19:00,
2013-09-24 20:34:00,71.5,58.0,29.82,WNW,299,0.0,0.0,63,0.00,,,0.00,weatherlink.com 1.10,2013-09-25 03:34:00,
2013-09-24 20:49:00,70.5,59.0,29.82,WNW,299,1.0,1.0,66,0.00,,,0.00,weatherlink.com 1.10,2013-09-25 03:49:00,
2013-09-24 21:04:00,70.5,59.0,29.83,WNW,299,0.0,1.0,67,0.00,,,0.00,weatherlink.com 1.10,2013-09-25 04:04:00,
2013-09-24 21:19:00,70.1,59.0,29.83,West,268,0.0,1.0,68,0.00,,,0.00,weatherlink.com 1.10,2013-09-25 04:19:00,
2013-09-24 21:34:00,69.1,59.0,29.83,West,267,0.0,0.0,71,0.00,,,0.00,weatherlink.com 1.10,2013-09-25 04:34:00,
2013-09-24 21:49:00,69.4,60.0,29.83,SSW,206,1.0,1.0,71,0.00,,,0.00,weatherlink.com 1.10,2013-09-25 04:49:00,
2013-09-24 22:04:00,69.4,60.0,29.83,SE,136,0.0,0.0,73,0.00,,,0.00,weatherlink.com 1.10,2013-09-25 05:04:00,
2013-09-24 22:19:00,68.8,61.0,29.83,SE,136,1.0,4.0,75,0.00,,,0.00,weatherlink.com 1.10,2013-09-25 05:19:00,
2013-09-24 22:34:00,68.1,60.0,29.83,SE,128,0.0,3.0,74,0.00,,,0.00,weatherlink.com 1.10,2013-09-25 05:34:00,
2013-09-24 22:49:00,67.4,59.0,29.83,SE,128,0.0,1.0,74,0.00,,,0.00,weatherlink.com 1.10,2013-09-25 05:49:00,
2013-09-24 23:04:00,66.9,58.0,29.83,SE,128,0.0,0.0,74,0.00,,,0.00,weatherlink.com 1.10,2013-09-25 06:04:00,
2013-09-24 23:19:00,66.3,59.0,29.83,SE,128,0.0,0.0,76,0.00,,,0.00,weatherlink.com 1.10,2013-09-25 06:19:00,
2013-09-24 23:34:00,65.7,59.0,29.83,SE,128,0.0,0.0,78,0.00,,,0.00,weatherlink.com 1.10,2013-09-25 06:34:00,
2013-09-24 23:49:00,65.4,59.0,29.82,SE,128,0.0,0.0,79,0.00,,,0.00,weatherlink.com 1.10,2013-09-25 06:49:00,